NCAR-RAP Real-Time Weather Data

Output produced by METARs form (26 May 2022  07:56 UTC)
found at http://weather.rap.ucar.edu/surface/
 
KIAD 260752Z 14003KT 10SM OVC040 16/09 A3026 RMK AO2 SLP246 T01560094 $
KIAD 260652Z 15003KT 10SM OVC048 16/08 A3028 RMK AO2 SLP250 T01610083 $
KIAD 260552Z 16005KT 10SM OVC048 16/08 A3029 RMK AO2 SLP255 T01610078 10194 20161 58005 $
KIAD 260452Z 14003KT 10SM OVC050 16/09 A3030 RMK AO2 SLP257 T01610089 402170117 $
KIAD 260352Z 12004KT 10SM OVC047 17/09 A3031 RMK AO2 SLP261 T01670089 $
KIAD 260252Z 13006KT 10SM OVC040 18/08 A3031 RMK AO2 SLP261 T01780083 53001 $
KIAD 260152Z 13006KT 10SM BKN042 OVC055 18/08 A3031 RMK AO2 SLP260 T01780078 $
KIAD 260052Z 12007KT 10SM OVC050 19/08 A3030 RMK AO2 SLP259 T01890083 $
KIAD 252352Z 16006KT 10SM OVC050 19/09 A3030 RMK AO2 SLP260 T01940089 10217 20194 53005 $
KIAD 252252Z 13008KT 10SM FEW040 BKN055 BKN150 20/09 A3029 RMK AO2 SLP254 T02000094 $
KIAD 252227Z 14008KT 10SM OVC055 20/10 A3029 RMK AO2 T02000100 $
KIAD 252152Z 11011KT 10SM OVC055 21/09 A3029 RMK AO2 SLP255 T02060094 $
KIAD 252052Z 13007KT 10SM FEW033 OVC050 21/11 A3029 RMK AO2 SLP255 T02110111 56013 $
KIAD 251952Z 11008KT 10SM SCT028 BKN035 BKN050 21/12 A3030 RMK AO2 SLP258 T02110122 $
KIAD 251852Z 10010KT 10SM FEW035 OVC055 21/13 A3031 RMK AO2 SLP263 T02110128 $
KIAD 251759Z 12006KT 10SM BKN033 OVC048 21/13 A3032 RMK AO2 T02060128 $
KIAD 251752Z 12006KT 10SM BKN026 OVC033 21/13 A3033 RMK AO2 SLP268 T02060128 10206 20150 58004 $
KIAD 251652Z 07003KT 10SM BKN026 BKN030 OVC043 19/13 A3033 RMK AO2 SLP270 T01940133
KIAD 251641Z VRB05KT 10SM BKN026 BKN032 OVC041 19/13 A3033 RMK AO2 T01940133
KIAD 251614Z VRB06KT 10SM SCT025 SCT033 OVC040 19/14 A3034 RMK AO2 T01940139
KIAD 251552Z 07008KT 10SM BKN020 OVC031 19/13 A3034 RMK AO2 SLP271 T01890133
KIAD 251459Z 09006KT 10SM BKN020 OVC036 18/13 A3034 RMK AO2 T01780133
KIAD 251452Z 08008KT 10SM SCT018 OVC035 P 18/13 A3034 RMK AO2 SLP274 T01780128 50001
KIAD 251352Z 09004KT 10SM SCT018 BKN044 OVC065 17/13 A3035 RMK AO2 SLP276 T01720128
KIAD 251307Z 07006KT 10SM SCT016 BKN055 BKN110 17/13 A3034 RMK AO2 T01670128
KIAD 251252Z 07009KT 10SM BKN016 OVC055 16/12 A3035 RMK AO2 SLP275 T01610122
KIAD 251244Z 09007KT 10SM BKN016 OVC055 16/12 A3035 RMK AO2 T01560117
KIAD 251217Z 07007KT 10SM SCT015 OVC055 15/12 A3034 RMK AO2 T01500117
KIAD 251152Z 07007KT 10SM BKN015 OVC055 15/11 A3034 RMK AO2 SLP273 70008 T01500111 10150 20117 53016
KIAD 251052Z 07006KT 10SM BKN050 BKN130 BKN240 14/11 A3031 RMK AO2 SLP263 T01440106
KIAD 250952Z 02006KT 10SM BKN055 14/11 A3029 RMK AO2 SLP258 T01440111
KIAD 250852Z 32004KT 10SM BKN055 13/11 A3029 RMK AO2 SLP256 T01280106 53002
KIAD 250752Z 00000KT 10SM BKN049 12/10 A3027 RMK AO2 SLP249 T01170100
KIAD 250652Z 02003KT 10SM BKN049 13/10 A3028 RMK AO2 SLP253 T01330100
KIAD 250552Z 02004KT 10SM OVC049 15/10 A3028 RMK AO2 SLP254 T01500100 10161 20150 58003
KIAD 250452Z 00000KT 10SM OVC049 15/10 A3030 RMK AO2 SLP259 T01500100 401720133
KIAD 250352Z 00000KT 10SM OVC046 16/11 A3029 RMK AO2 SLP257 T01560106
KIAD 250252Z 08003KT 10SM OVC048 16/11 A3029 RMK AO2 SLP258 T01560106 53009
KIAD 250152Z 08005KT 10SM OVC050 16/11 A3028 RMK AO2 SLP253 T01560106
KIAD 250052Z 06004KT 10SM BKN048 OVC070 16/11 A3028 RMK AO2 SLP252 T01610106
KIAD 242352Z 09007KT 10SM BKN042 OVC070 17/11 A3027 RMK AO2 SLP248 60000 T01670106 10172 20161 53010
KIAD 242252Z 09008KT 10SM BKN034 OVC050 17/11 A3025 RMK AO2 SLP243 T01670106
KIAD 242215Z 08011KT 10SM SCT025 BKN034 OVC060 17/11 A3024 RMK AO2 T01670111
KIAD 242152Z 08006KT 10SM BKN023 OVC031 17/12 A3024 RMK AO2 SLP239 T01720122
KIAD 242052Z 06012KT 10SM BKN017 OVC027 17/11 A3023 RMK AO2 SLP237 60000 T01670111 50001
KIAD 241959Z 08010KT 10SM OVC017 16/13 A3024 RMK AO2 T01610128
KIAD 241952Z 08007KT 10SM OVC012 16/13 A3024 RMK AO2 SLP239 T01610133
KIAD 241929Z 08006KT 10SM OVC013 16/14 A3024 RMK AO2 T01610139
KIAD 241852Z 09008G16KT 10SM BKN008 BKN016 OVC022 16/14 A3023 RMK AO2 RAB24E34 SLP236 P0000 T01610139
KIAD 241752Z 08009KT 4SM BR BKN008 BKN016 OVC021 17/15 A3023 RMK AO2 RAE29 SLP236 P0001 60008 T01720150 10172 20144 58004
KIAD 241745Z 08007KT 4SM BR BKN008 BKN016 OVC021 17/15 A3023 RMK AO2 RAE29 P0001 T01720150
KIAD 241659Z 07005KT 1 1/2SM -RA BR SCT007 BKN016 OVC027 16/14 A3024 RMK AO2 P0000 T01610144
KIAD 241652Z 07007KT 1 1/2SM -RA BR SCT005 BKN010 OVC027 16/14 A3024 RMK AO2 SLP240 P0003 T01560144
KIAD 241629Z 07007KT 1 3/4SM R01R/5000VP6000FT -RA BR SCT008 BKN012 OVC030 16/14 A3025 RMK AO2 P0002 T01560139
KIAD 241559Z 08007KT 2 1/2SM -RA BR FEW009 BKN012 OVC033 16/14 A3025 RMK AO2 P0001 T01560139
KIAD 241552Z VRB04KT 2 1/2SM -RA BR FEW008 SCT012 OVC050 16/14 A3025 RMK AO2 RAE29B45 SLP242 P0000 T01560139
KIAD 241510Z 08008KT 5SM -RA BR SCT008 BKN019 OVC055 16/14 A3024 RMK AO2 P0000 T01560139
KIAD 241501Z 08008KT 5SM -RA BR SCT010 BKN017 OVC050 16/14 A3024 RMK AO2 P0000 T01560139
KIAD 241452Z 06008KT 2 1/2SM -RA BR SCT008 BKN012 OVC037 15/14 A3024 RMK AO2 RAB10 SLP239 P0001 60004 T01500139 50008
KIAD 241450Z 07008KT 2 1/2SM -RA BR BKN008 BKN015 OVC055 16/14 A3024 RMK AO2 RAB10 P0001
KIAD 241442Z 06009KT 3SM -RA BR SCT006 BKN014 OVC050 16/14 A3024 RMK AO2 RAB10 P0001 T01560139
KIAD 241435Z 05005KT 3SM -RA BR FEW006 BKN018 OVC050 16/14 A3024 RMK AO2 RAB10 P0000 T01560139
KIAD 241425Z 05007KT 2 1/2SM -RA BR SCT008 BKN013 OVC025 16/14 A3024 RMK AO2 RAB10 P0000 T01560139
KIAD 241421Z 06006KT 6SM -RA BR SCT007 BKN015 OVC023 16/14 A3024 RMK AO2 RAB10 P0000 T01560139
KIAD 241359Z 05007KT 10SM SCT008 BKN012 OVC034 16/14 A3025 RMK AO2 T01560139
KIAD 241352Z 04006KT 4SM BR SCT006 BKN029 OVC035 16/14 A3025 RMK AO2 RAB19E44 SLP241 P0001 T01560139
KIAD 241344Z 05005KT 4SM BR SCT010 BKN026 OVC035 15/14 A3024 RMK AO2 RAB19E44 P0001 T01500139
KIAD 241328Z 06005KT 2 1/2SM R01R/6000VP6000FT -RA BR SCT010 BKN026 OVC035 15/13 A3024 RMK AO2 RAB19 P0000 T01500133
KIAD 241326Z 05006KT 3SM R01R/6000VP6000FT -RA BR SCT010 BKN026 OVC035 15/13 A3024 RMK AO2 RAB19 P0000 T01500133
KIAD 241252Z 04008KT 10SM SCT007 SCT028 OVC034 15/13 A3023 RMK AO2 RAE43 SLP237 P0002 T01500133
KIAD 241237Z 05004KT 10SM -RA SCT007 SCT024 OVC030 15/13 A3023 RMK AO2 P0002 T01500133
KIAD 241224Z 05006KT 7SM -RA FEW009 SCT012 OVC026 14/13 A3023 RMK AO2 P0002 T01440133
KIAD 241214Z 06006KT 5SM -RA BR BKN009 BKN014 OVC024 14/13 A3022 RMK AO2 P0001 T01440133
KIAD 241154Z 04007KT 4SM -RA BR BKN011 OVC018 14/13 A3022 RMK AO2 P0000 T01440133
KIAD 241152Z 04007KT 4SM -RA BR BKN009 BKN018 OVC025 14/13 A3022 RMK AO2 SLP231 P0003 60032 70038 T01440133 10144 20133 53014
KIAD 241141Z 03006KT 5SM -RA BR BKN009 BKN018 OVC025 14/13 A3021 RMK AO2 P0002 T01440133
KIAD 241139Z 03003KT 5SM -RA BR BKN011 BKN018 OVC025 14/13 A3021 RMK AO2 P0002 T01440128
KIAD 241052Z 03004KT 7SM -RA FEW009 BKN023 OVC031 14/13 A3020 RMK AO2 SLP224 P0002 T01440128
KIAD 241027Z 02007KT 7SM -RA SCT006 BKN027 OVC032 14/13 A3019 RMK AO2 P0001 T01390128
KIAD 240952Z 01005KT 8SM -RA FEW008 SCT012 OVC030 14/13 A3017 RMK AO2 SLP214 P0003 T01390128
KIAD 240938Z 01005KT 8SM -RA FEW008 SCT012 OVC030 14/13 A3017 RMK AO2 P0002 T01390128
KIAD 240932Z 01007KT 9SM -RA SCT012 BKN017 OVC030 14/13 A3017 RMK AO2 P0002 T01390128
KIAD 240852Z 02008KT 8SM -RA SCT033 BKN042 OVC060 14/12 A3017 RMK AO2 SLP216 P0005 60024 T01390122 58015